sensor_id;sensor_type;location;lat;lon;timestamp;pressure;altitude;pressure_sealevel;temperature;humidity
17309;BME280;8772;42.804;23.426;2023-05-11T00:01:21;74043.53;;;-140.58;89.09
17309;BME280;8772;42.804;23.426;2023-05-11T00:03:48;74051.75;;;-140.58;88.50
17309;BME280;8772;42.804;23.426;2023-05-11T00:06:17;74047.63;;;-140.58;89.29
17309;BME280;8772;42.804;23.426;2023-05-11T00:08:43;74051.75;;;-140.58;89.29
17309;BME280;8772;42.804;23.426;2023-05-11T00:11:10;74047.63;;;-140.58;88.80
17309;BME280;8772;42.804;23.426;2023-05-11T00:13:38;74051.75;;;-140.58;89.33
17309;BME280;8772;42.804;23.426;2023-05-11T00:16:05;74043.53;;;-140.58;89.60
17309;BME280;8772;42.804;23.426;2023-05-11T00:18:31;74051.75;;;-140.58;87.77
17309;BME280;8772;42.804;23.426;2023-05-11T00:20:58;74059.94;;;-140.58;89.52
17309;BME280;8772;42.804;23.426;2023-05-11T00:23:27;74055.84;;;-140.58;88.97
17309;BME280;8772;42.804;23.426;2023-05-11T00:25:54;74055.84;;;-140.58;88.70
17309;BME280;8772;42.804;23.426;2023-05-11T00:28:21;74049.69;;;-140.58;89.03
17309;BME280;8772;42.804;23.426;2023-05-11T00:30:48;74055.84;;;-140.58;90.28
17309;BME280;8772;42.804;23.426;2023-05-11T00:33:15;74047.63;;;-140.58;90.19
17309;BME280;8772;42.804;23.426;2023-05-11T00:35:41;74035.31;;;-140.58;90.54
17309;BME280;8772;42.804;23.426;2023-05-11T00:38:08;74051.75;;;-140.58;90.20
17309;BME280;8772;42.804;23.426;2023-05-11T00:40:37;74059.94;;;-140.58;90.55
17309;BME280;8772;42.804;23.426;2023-05-11T00:43:04;74064.03;;;-140.58;90.91
17309;BME280;8772;42.804;23.426;2023-05-11T00:45:31;74055.84;;;-140.58;91.02
17309;BME280;8772;42.804;23.426;2023-05-11T00:47:58;74064.03;;;-140.58;90.95
17309;BME280;8772;42.804;23.426;2023-05-11T00:50:26;74053.78;;;-140.58;91.71
17309;BME280;8772;42.804;23.426;2023-05-11T00:52:54;74047.63;;;-140.58;91.30
17309;BME280;8772;42.804;23.426;2023-05-11T00:55:22;74051.75;;;-140.58;91.26
17309;BME280;8772;42.804;23.426;2023-05-11T00:57:50;74043.53;;;-140.58;91.35
17309;BME280;8772;42.804;23.426;2023-05-11T01:00:17;74041.47;;;-140.58;92.13
17309;BME280;8772;42.804;23.426;2023-05-11T01:02:44;74057.91;;;-140.58;90.74
17309;BME280;8772;42.804;23.426;2023-05-11T01:05:43;74053.78;;;-140.58;91.69
17309;BME280;8772;42.804;23.426;2023-05-11T01:08:16;74059.94;;;-140.58;93.16
17309;BME280;8772;42.804;23.426;2023-05-11T01:10:48;74053.78;;;-140.58;92.10
17309;BME280;8772;42.804;23.426;2023-05-11T01:13:26;74068.16;;;-140.58;92.45
17309;BME280;8772;42.804;23.426;2023-05-11T01:15:55;74049.69;;;-140.58;92.40
17309;BME280;8772;42.804;23.426;2023-05-11T01:18:25;74047.63;;;-140.58;92.64
17309;BME280;8772;42.804;23.426;2023-05-11T01:20:56;74051.75;;;-140.58;93.04
17309;BME280;8772;42.804;23.426;2023-05-11T01:23:57;74072.25;;;-140.58;93.88
17309;BME280;8772;42.804;23.426;2023-05-11T01:26:36;74066.09;;;-140.58;93.52
17309;BME280;8772;42.804;23.426;2023-05-11T01:29:28;74070.19;;;-140.58;94.48
17309;BME280;8772;42.804;23.426;2023-05-11T01:32:07;74055.84;;;-140.58;94.53
17309;BME280;8772;42.804;23.426;2023-05-11T01:34:38;74072.25;;;-140.58;94.03
17309;BME280;8772;42.804;23.426;2023-05-11T01:37:09;74080.47;;;-140.58;94.69
17309;BME280;8772;42.804;23.426;2023-05-11T01:39:44;74084.56;;;-140.58;94.51
17309;BME280;8772;42.804;23.426;2023-05-11T01:42:15;74100.97;;;-140.58;93.71
17309;BME280;8772;42.804;23.426;2023-05-11T01:44:48;74098.91;;;-140.58;94.64
17309;BME280;8772;42.804;23.426;2023-05-11T01:47:20;74105.09;;;-140.58;95.02
17309;BME280;8772;42.804;23.426;2023-05-11T01:49:49;74098.91;;;-140.58;93.60
17309;BME280;8772;42.804;23.426;2023-05-11T01:52:19;74115.34;;;-140.58;91.94
17309;BME280;8772;42.804;23.426;2023-05-11T01:54:48;74098.91;;;-140.58;92.40
17309;BME280;8772;42.804;23.426;2023-05-11T01:57:17;74107.13;;;-140.58;91.55
17309;BME280;8772;42.804;23.426;2023-05-11T01:59:45;74117.38;;;-140.58;91.26
17309;BME280;8772;42.804;23.426;2023-05-11T02:02:13;74117.38;;;-140.58;91.64
17309;BME280;8772;42.804;23.426;2023-05-11T02:04:44;74131.75;;;-140.58;92.22
17309;BME280;8772;42.804;23.426;2023-05-11T02:07:13;74135.84;;;-140.58;91.69
17309;BME280;8772;42.804;23.426;2023-05-11T02:09:41;74139.97;;;-140.58;91.37
17309;BME280;8772;42.804;23.426;2023-05-11T02:12:09;74125.59;;;-140.58;92.83
17309;BME280;8772;42.804;23.426;2023-05-11T02:14:38;74129.69;;;-140.58;91.78
17309;BME280;8772;42.804;23.426;2023-05-11T02:17:06;74129.69;;;-140.58;91.45
17309;BME280;8772;42.804;23.426;2023-05-11T02:19:35;74133.81;;;-140.58;91.05
17309;BME280;8772;42.804;23.426;2023-05-11T02:22:05;74121.50;;;-140.58;90.54
17309;BME280;8772;42.804;23.426;2023-05-11T02:24:34;74129.69;;;-140.58;92.49
17309;BME280;8772;42.804;23.426;2023-05-11T02:27:01;74105.09;;;-140.58;91.87
17309;BME280;8772;42.804;23.426;2023-05-11T02:29:28;74125.59;;;-140.58;92.17
17309;BME280;8772;42.804;23.426;2023-05-11T02:31:59;74117.38;;;-140.58;92.37
17309;BME280;8772;42.804;23.426;2023-05-11T02:34:40;74142.00;;;-140.58;92.67
17309;BME280;8772;42.804;23.426;2023-05-11T02:37:12;74133.81;;;-140.58;94.27
17309;BME280;8772;42.804;23.426;2023-05-11T02:39:41;74142.00;;;-140.58;94.64
17309;BME280;8772;42.804;23.426;2023-05-11T02:42:13;74139.97;;;-140.58;95.02
17309;BME280;8772;42.804;23.426;2023-05-11T02:44:44;74144.06;;;-140.58;97.22
17309;BME280;8772;42.804;23.426;2023-05-11T02:47:14;74148.16;;;-140.58;95.87
17309;BME280;8772;42.804;23.426;2023-05-11T02:49:44;74146.09;;;-140.58;95.68
17309;BME280;8772;42.804;23.426;2023-05-11T02:52:20;74150.22;;;-140.58;95.53
17309;BME280;8772;42.804;23.426;2023-05-11T02:54:48;74156.38;;;-140.58;95.93
17309;BME280;8772;42.804;23.426;2023-05-11T02:57:16;74158.41;;;-140.58;96.05
17309;BME280;8772;42.804;23.426;2023-05-11T02:59:44;74160.47;;;-140.58;95.52
17309;BME280;8772;42.804;23.426;2023-05-11T03:02:11;74160.47;;;-140.58;95.98
17309;BME280;8772;42.804;23.426;2023-05-11T03:04:38;74154.31;;;-140.58;96.06
17309;BME280;8772;42.804;23.426;2023-05-11T03:07:05;74162.53;;;-140.58;95.75
17309;BME280;8772;42.804;23.426;2023-05-11T03:09:34;74170.72;;;-140.58;96.13
17309;BME280;8772;42.804;23.426;2023-05-11T03:12:01;74172.78;;;-140.58;96.88
17309;BME280;8772;42.804;23.426;2023-05-11T03:14:30;74170.72;;;-140.58;97.32
17309;BME280;8772;42.804;23.426;2023-05-11T03:16:59;74172.78;;;-140.58;97.82
17309;BME280;8772;42.804;23.426;2023-05-11T03:19:26;74170.72;;;-140.58;97.65
17309;BME280;8772;42.804;23.426;2023-05-11T03:21:55;74172.78;;;-140.58;98.65
17309;BME280;8772;42.804;23.426;2023-05-11T03:24:24;74166.63;;;-140.58;98.56
17309;BME280;8772;42.804;23.426;2023-05-11T03:26:53;74170.72;;;-140.58;98.88
17309;BME280;8772;42.804;23.426;2023-05-11T03:29:21;74166.63;;;-140.58;99.72
17309;BME280;8772;42.804;23.426;2023-05-11T03:31:48;74164.56;;;-140.58;98.41
17309;BME280;8772;42.804;23.426;2023-05-11T03:34:15;74174.84;;;-140.58;99.40
17309;BME280;8772;42.804;23.426;2023-05-11T03:36:44;74178.94;;;-140.58;99.08
17309;BME280;8772;42.804;23.426;2023-05-11T03:39:14;74185.09;;;-140.58;99.90
17309;BME280;8772;42.804;23.426;2023-05-11T03:41:43;74185.09;;;-140.58;100.00
17309;BME280;8772;42.804;23.426;2023-05-11T03:44:13;74185.09;;;-140.58;100.00
17309;BME280;8772;42.804;23.426;2023-05-11T03:46:41;74178.94;;;-140.58;100.00
17309;BME280;8772;42.804;23.426;2023-05-11T03:49:10;74166.63;;;-140.58;100.00
17309;BME280;8772;42.804;23.426;2023-05-11T03:51:38;74172.78;;;-140.58;100.00
17309;BME280;8772;42.804;23.426;2023-05-11T03:54:05;74170.72;;;-140.58;99.40
17309;BME280;8772;42.804;23.426;2023-05-11T03:56:34;74185.09;;;-140.58;99.31
17309;BME280;8772;42.804;23.426;2023-05-11T03:59:01;74183.03;;;-140.58;99.99
17309;BME280;8772;42.804;23.426;2023-05-11T04:01:30;74172.78;;;-140.58;99.85
17309;BME280;8772;42.804;23.426;2023-05-11T04:03:57;74172.78;;;-140.58;100.00
17309;BME280;8772;42.804;23.426;2023-05-11T04:06:24;74170.72;;;-140.58;99.64
17309;BME280;8772;42.804;23.426;2023-05-11T04:08:51;74170.72;;;-140.58;99.38
17309;BME280;8772;42.804;23.426;2023-05-11T04:11:18;74164.56;;;-140.58;99.77
17309;BME280;8772;42.804;23.426;2023-05-11T04:13:46;74178.94;;;-140.58;98.52
17309;BME280;8772;42.804;23.426;2023-05-11T04:16:13;74162.53;;;-140.58;99.26
17309;BME280;8772;42.804;23.426;2023-05-11T04:18:41;74166.63;;;-140.58;99.44
17309;BME280;8772;42.804;23.426;2023-05-11T04:21:08;74174.84;;;-140.58;99.40
17309;BME280;8772;42.804;23.426;2023-05-11T04:23:35;74166.63;;;-140.58;98.83
17309;BME280;8772;42.804;23.426;2023-05-11T04:26:02;74174.84;;;-140.58;99.76
17309;BME280;8772;42.804;23.426;2023-05-11T04:28:29;74170.72;;;-140.58;99.65
17309;BME280;8772;42.804;23.426;2023-05-11T04:30:56;74162.53;;;-140.58;99.72
17309;BME280;8772;42.804;23.426;2023-05-11T04:33:23;74174.84;;;-140.58;100.00
17309;BME280;8772;42.804;23.426;2023-05-11T04:35:52;74178.94;;;-140.58;100.00
17309;BME280;8772;42.804;23.426;2023-05-11T04:38:20;74166.63;;;-140.58;100.00
17309;BME280;8772;42.804;23.426;2023-05-11T04:40:47;74170.72;;;-140.58;100.00
17309;BME280;8772;42.804;23.426;2023-05-11T04:43:15;74162.53;;;-140.58;100.00
17309;BME280;8772;42.804;23.426;2023-05-11T04:45:46;74166.63;;;-140.58;100.00
17309;BME280;8772;42.804;23.426;2023-05-11T04:48:13;74170.72;;;-140.58;100.00
17309;BME280;8772;42.804;23.426;2023-05-11T04:50:40;74185.09;;;-140.58;100.00
17309;BME280;8772;42.804;23.426;2023-05-11T04:53:08;74191.25;;;-140.58;100.00
17309;BME280;8772;42.804;23.426;2023-05-11T04:55:35;74183.03;;;-140.58;100.00
17309;BME280;8772;42.804;23.426;2023-05-11T04:58:02;74174.84;;;-140.58;100.00
17309;BME280;8772;42.804;23.426;2023-05-11T05:00:29;74154.31;;;-140.58;100.00
17309;BME280;8772;42.804;23.426;2023-05-11T05:02:55;74176.88;;;-140.58;100.00
17309;BME280;8772;42.804;23.426;2023-05-11T05:05:22;74168.69;;;-140.58;100.00
17309;BME280;8772;42.804;23.426;2023-05-11T05:07:49;74172.78;;;-140.58;100.00
17309;BME280;8772;42.804;23.426;2023-05-11T05:10:17;74156.38;;;-140.58;100.00
17309;BME280;8772;42.804;23.426;2023-05-11T05:12:44;74146.09;;;-140.58;100.00
17309;BME280;8772;42.804;23.426;2023-05-11T05:15:11;74142.00;;;-140.58;100.00
17309;BME280;8772;42.804;23.426;2023-05-11T05:17:38;74129.69;;;-140.58;100.00
17309;BME280;8772;42.804;23.426;2023-05-11T05:20:06;74137.91;;;-140.58;99.79
17309;BME280;8772;42.804;23.426;2023-05-11T05:22:33;74125.59;;;-140.58;100.00
17309;BME280;8772;42.804;23.426;2023-05-11T05:25:00;74121.50;;;-140.58;100.00
17309;BME280;8772;42.804;23.426;2023-05-11T05:27:29;74113.28;;;-140.58;100.00
17309;BME280;8772;42.804;23.426;2023-05-11T05:29:57;74121.50;;;-140.58;100.00
17309;BME280;8772;42.804;23.426;2023-05-11T05:32:23;74117.38;;;-140.58;100.00
17309;BME280;8772;42.804;23.426;2023-05-11T05:34:50;74127.66;;;-140.58;100.00
17309;BME280;8772;42.804;23.426;2023-05-11T05:37:17;74125.59;;;-140.58;100.00
17309;BME280;8772;42.804;23.426;2023-05-11T05:39:44;74137.91;;;-140.58;100.00
17309;BME280;8772;42.804;23.426;2023-05-11T05:42:11;74137.91;;;-140.58;100.00
17309;BME280;8772;42.804;23.426;2023-05-11T05:44:39;74139.97;;;-140.58;100.00
17309;BME280;8772;42.804;23.426;2023-05-11T05:47:06;74137.91;;;-140.58;100.00
17309;BME280;8772;42.804;23.426;2023-05-11T05:49:33;74125.59;;;-140.58;100.00
17309;BME280;8772;42.804;23.426;2023-05-11T05:52:00;74137.91;;;-140.58;100.00
17309;BME280;8772;42.804;23.426;2023-05-11T05:54:27;74113.28;;;-140.58;100.00
17309;BME280;8772;42.804;23.426;2023-05-11T05:56:54;74117.38;;;-140.58;100.00
17309;BME280;8772;42.804;23.426;2023-05-11T05:59:21;74113.28;;;-140.58;98.67
17309;BME280;8772;42.804;23.426;2023-05-11T06:01:50;74103.03;;;-140.58;99.27
17309;BME280;8772;42.804;23.426;2023-05-11T06:04:17;74096.88;;;-140.58;98.01
17309;BME280;8772;42.804;23.426;2023-05-11T06:06:44;74076.34;;;-140.58;98.57
17309;BME280;8772;42.804;23.426;2023-05-11T06:09:11;74074.31;;;-140.58;98.68
17309;BME280;8772;42.804;23.426;2023-05-11T06:11:38;74100.97;;;-140.58;95.79
17309;BME280;8772;42.804;23.426;2023-05-11T06:14:05;74098.91;;;-140.58;95.11
17309;BME280;8772;42.804;23.426;2023-05-11T06:16:32;74088.66;;;-140.58;95.39
17309;BME280;8772;42.804;23.426;2023-05-11T06:19:00;74084.56;;;-140.58;94.60
17309;BME280;8772;42.804;23.426;2023-05-11T06:21:27;74092.78;;;-140.58;92.48
17309;BME280;8772;42.804;23.426;2023-05-11T06:23:54;74098.91;;;-140.58;92.89
17309;BME280;8772;42.804;23.426;2023-05-11T06:26:21;74072.25;;;-140.58;94.43
17309;BME280;8772;42.804;23.426;2023-05-11T06:28:49;74064.03;;;-140.58;95.24
17309;BME280;8772;42.804;23.426;2023-05-11T06:31:16;74059.94;;;-140.58;93.38
17309;BME280;8772;42.804;23.426;2023-05-11T06:33:44;74062.00;;;-140.58;92.31
17309;BME280;8772;42.804;23.426;2023-05-11T06:36:12;74051.75;;;-140.58;89.87
17309;BME280;8772;42.804;23.426;2023-05-11T06:38:39;74043.53;;;-140.58;89.69
17309;BME280;8772;42.804;23.426;2023-05-11T06:41:06;74047.63;;;-140.58;89.36
17309;BME280;8772;42.804;23.426;2023-05-11T06:43:35;74047.63;;;-140.58;87.94
17309;BME280;8772;42.804;23.426;2023-05-11T06:46:02;74055.84;;;-140.58;88.51
17309;BME280;8772;42.804;23.426;2023-05-11T06:48:29;74055.84;;;-140.58;88.75
17309;BME280;8772;42.804;23.426;2023-05-11T06:50:56;74064.03;;;-140.58;89.16
17309;BME280;8772;42.804;23.426;2023-05-11T06:53:24;74064.03;;;-140.58;87.30
17309;BME280;8772;42.804;23.426;2023-05-11T06:55:53;74049.69;;;-140.58;89.35
17309;BME280;8772;42.804;23.426;2023-05-11T06:58:20;74043.53;;;-140.58;89.79
17309;BME280;8772;42.804;23.426;2023-05-11T07:00:47;74055.84;;;-140.58;87.62
17309;BME280;8772;42.804;23.426;2023-05-11T07:03:14;74037.38;;;-140.58;87.80
17309;BME280;8772;42.804;23.426;2023-05-11T07:05:41;74031.22;;;-140.58;88.10
17309;BME280;8772;42.804;23.426;2023-05-11T07:08:08;74027.13;;;-140.58;88.69
17309;BME280;8772;42.804;23.426;2023-05-11T07:10:36;74025.06;;;-140.58;89.46
17309;BME280;8772;42.804;23.426;2023-05-11T07:13:03;74029.16;;;-140.58;86.79
17309;BME280;8772;42.804;23.426;2023-05-11T07:15:30;74020.97;;;-140.58;87.93
17309;BME280;8772;42.804;23.426;2023-05-11T07:17:57;74008.66;;;-140.58;87.18
17309;BME280;8772;42.804;23.426;2023-05-11T07:20:25;73990.19;;;-140.58;86.78
17309;BME280;8772;42.804;23.426;2023-05-11T07:22:55;73998.41;;;-140.58;87.23
17309;BME280;8772;42.804;23.426;2023-05-11T07:25:23;73979.94;;;-140.58;84.60
17309;BME280;8772;42.804;23.426;2023-05-11T07:27:51;73963.53;;;-140.58;84.68
17309;BME280;8772;42.804;23.426;2023-05-11T07:30:18;73947.09;;;-140.58;84.63
17309;BME280;8772;42.804;23.426;2023-05-11T07:32:45;73949.16;;;-140.58;83.19
17309;BME280;8772;42.804;23.426;2023-05-11T07:35:12;73945.06;;;-140.58;81.73
17309;BME280;8772;42.804;23.426;2023-05-11T07:37:40;73920.44;;;-140.58;83.49
17309;BME280;8772;42.804;23.426;2023-05-11T07:40:08;73899.91;;;-140.58;78.90
17309;BME280;8772;42.804;23.426;2023-05-11T07:42:35;73877.34;;;-140.58;81.77
17309;BME280;8772;42.804;23.426;2023-05-11T07:45:03;73883.50;;;-140.58;79.02
17309;BME280;8772;42.804;23.426;2023-05-11T07:47:30;73883.50;;;-140.58;79.06
17309;BME280;8772;42.804;23.426;2023-05-11T07:49:57;73854.78;;;-140.58;79.35
17309;BME280;8772;42.804;23.426;2023-05-11T07:52:24;73854.78;;;-140.58;79.64
17309;BME280;8772;42.804;23.426;2023-05-11T07:54:51;73842.47;;;-140.58;76.12
17309;BME280;8772;42.804;23.426;2023-05-11T07:57:18;73817.88;;;-140.58;78.07
17309;BME280;8772;42.804;23.426;2023-05-11T07:59:45;73828.13;;;-140.58;76.26
17309;BME280;8772;42.804;23.426;2023-05-11T08:02:13;73811.72;;;-140.58;76.81
17309;BME280;8772;42.804;23.426;2023-05-11T08:04:40;73791.19;;;-140.58;74.47
17309;BME280;8772;42.804;23.426;2023-05-11T08:07:07;73772.72;;;-140.58;72.15
17309;BME280;8772;42.804;23.426;2023-05-11T08:09:34;73744.00;;;-140.58;74.79
17309;BME280;8772;42.804;23.426;2023-05-11T08:12:01;73760.44;;;-140.58;70.71
17309;BME280;8772;42.804;23.426;2023-05-11T08:14:28;73748.13;;;-140.58;72.89
17309;BME280;8772;42.804;23.426;2023-05-11T08:16:55;73729.66;;;-140.58;72.39
17309;BME280;8772;42.804;23.426;2023-05-11T08:19:23;73717.34;;;-140.58;70.46
17309;BME280;8772;42.804;23.426;2023-05-11T08:21:50;73694.78;;;-140.58;71.81
17309;BME280;8772;42.804;23.426;2023-05-11T08:24:17;73686.56;;;-140.58;72.38
17309;BME280;8772;42.804;23.426;2023-05-11T08:26:44;73686.56;;;-140.58;70.74
17309;BME280;8772;42.804;23.426;2023-05-11T08:29:11;73682.47;;;-140.58;70.85
17309;BME280;8772;42.804;23.426;2023-05-11T08:31:38;73655.81;;;-140.58;74.55
17309;BME280;8772;42.804;23.426;2023-05-11T08:34:05;73612.72;;;-140.58;70.29
17309;BME280;8772;42.804;23.426;2023-05-11T08:36:34;73616.81;;;-140.58;67.08
17309;BME280;8772;42.804;23.426;2023-05-11T08:39:02;73577.84;;;-140.58;70.11
17309;BME280;8772;42.804;23.426;2023-05-11T08:41:30;73584.00;;;-140.58;68.37
17309;BME280;8772;42.804;23.426;2023-05-11T08:43:58;73586.06;;;-140.58;66.84
17309;BME280;8772;42.804;23.426;2023-05-11T08:46:28;73579.91;;;-140.58;68.09
17309;BME280;8772;42.804;23.426;2023-05-11T08:48:55;73577.84;;;-140.58;65.37
17309;BME280;8772;42.804;23.426;2023-05-11T08:51:23;73540.94;;;-140.58;68.14
17309;BME280;8772;42.804;23.426;2023-05-11T08:53:52;73547.09;;;-140.58;67.58
17309;BME280;8772;42.804;23.426;2023-05-11T08:56:19;73532.72;;;-140.58;67.28
17309;BME280;8772;42.804;23.426;2023-05-11T08:58:49;73534.78;;;-140.58;65.84
17309;BME280;8772;42.804;23.426;2023-05-11T09:01:18;73518.38;;;-140.58;64.37
17309;BME280;8772;42.804;23.426;2023-05-11T09:03:48;73518.38;;;-140.58;65.02
17309;BME280;8772;42.804;23.426;2023-05-11T09:06:16;73538.88;;;-140.58;65.50
17309;BME280;8772;42.804;23.426;2023-05-11T09:08:43;73514.25;;;-140.58;66.22
17309;BME280;8772;42.804;23.426;2023-05-11T09:11:13;73530.66;;;-140.58;68.39
17309;BME280;8772;42.804;23.426;2023-05-11T09:13:40;73501.97;;;-140.58;68.81
17309;BME280;8772;42.804;23.426;2023-05-11T09:16:07;73489.66;;;-140.58;65.89
17309;BME280;8772;42.804;23.426;2023-05-11T09:18:33;73528.63;;;-140.58;63.84
17309;BME280;8772;42.804;23.426;2023-05-11T09:21:00;73514.25;;;-140.58;63.58
17309;BME280;8772;42.804;23.426;2023-05-11T09:23:27;73487.59;;;-140.58;66.09
17309;BME280;8772;42.804;23.426;2023-05-11T09:25:54;73444.53;;;-140.58;69.40
17309;BME280;8772;42.804;23.426;2023-05-11T09:28:23;73397.34;;;-140.58;67.05
17309;BME280;8772;42.804;23.426;2023-05-11T09:30:51;73374.78;;;-140.58;62.11
17309;BME280;8772;42.804;23.426;2023-05-11T09:33:22;73382.97;;;-140.58;61.58
17309;BME280;8772;42.804;23.426;2023-05-11T09:35:49;73364.53;;;-140.58;63.63
17309;BME280;8772;42.804;23.426;2023-05-11T09:38:16;73372.72;;;-140.58;62.05
17309;BME280;8772;42.804;23.426;2023-05-11T09:40:55;73380.94;;;-140.58;61.98
17309;BME280;8772;42.804;23.426;2023-05-11T09:43:25;73364.53;;;-140.58;63.30
17309;BME280;8772;42.804;23.426;2023-05-11T09:45:54;73321.44;;;-140.58;65.52
17309;BME280;8772;42.804;23.426;2023-05-11T09:48:25;73288.63;;;-140.58;58.81
17309;BME280;8772;42.804;23.426;2023-05-11T09:50:58;73319.41;;;-140.58;63.12
17309;BME280;8772;42.804;23.426;2023-05-11T09:53:33;73307.09;;;-140.58;60.49
17309;BME280;8772;42.804;23.426;2023-05-11T09:56:00;73268.13;;;-140.58;62.98
17309;BME280;8772;42.804;23.426;2023-05-11T09:58:44;73229.16;;;-140.58;63.18
17309;BME280;8772;42.804;23.426;2023-05-11T10:01:11;73198.38;;;-140.58;59.54
17309;BME280;8772;42.804;23.426;2023-05-11T10:03:45;73186.06;;;-140.58;56.32
17309;BME280;8772;42.804;23.426;2023-05-11T10:06:12;73210.69;;;-140.58;56.62
17309;BME280;8772;42.804;23.426;2023-05-11T10:08:39;73206.59;;;-140.58;55.88
17309;BME280;8772;42.804;23.426;2023-05-11T10:11:07;73188.13;;;-140.58;57.07
17309;BME280;8772;42.804;23.426;2023-05-11T10:13:36;73204.53;;;-140.58;57.39
17309;BME280;8772;42.804;23.426;2023-05-11T10:16:04;73165.56;;;-140.58;55.22
17309;BME280;8772;42.804;23.426;2023-05-11T10:18:31;73167.63;;;-140.58;56.66
17309;BME280;8772;42.804;23.426;2023-05-11T10:20:59;73099.94;;;-140.58;56.48
17309;BME280;8772;42.804;23.426;2023-05-11T10:23:26;73073.28;;;-140.58;55.62
17309;BME280;8772;42.804;23.426;2023-05-11T10:25:53;73050.72;;;-140.58;50.30
17309;BME280;8772;42.804;23.426;2023-05-11T10:28:21;73093.78;;;-140.58;51.44
17309;BME280;8772;42.804;23.426;2023-05-11T10:30:50;73104.03;;;-140.58;50.45
17309;BME280;8772;42.804;23.426;2023-05-11T10:33:18;73099.94;;;-140.58;49.96
17309;BME280;8772;42.804;23.426;2023-05-11T10:35:46;73075.31;;;-140.58;49.02
17309;BME280;8772;42.804;23.426;2023-05-11T10:38:13;73054.81;;;-140.58;49.72
17309;BME280;8772;42.804;23.426;2023-05-11T10:40:42;73097.88;;;-140.58;49.33
17309;BME280;8772;42.804;23.426;2023-05-11T10:43:31;73030.19;;;-140.58;50.15
17309;BME280;8772;42.804;23.426;2023-05-11T10:46:24;73044.56;;;-140.58;49.49
17309;BME280;8772;42.804;23.426;2023-05-11T10:49:08;73087.63;;;-140.58;48.30
17309;BME280;8772;42.804;23.426;2023-05-11T10:54:46;73050.72;;;-140.58;48.41
17309;BME280;8772;42.804;23.426;2023-05-11T10:57:29;73030.19;;;-140.58;48.71
17309;BME280;8772;42.804;23.426;2023-05-11T11:03:20;73136.84;;;-140.58;49.39
17309;BME280;8772;42.804;23.426;2023-05-11T11:05:47;73140.94;;;-140.58;49.32
17309;BME280;8772;42.804;23.426;2023-05-11T11:08:14;73106.09;;;-140.58;49.62
17309;BME280;8772;42.804;23.426;2023-05-11T11:10:42;73097.88;;;-140.58;49.70
17309;BME280;8772;42.804;23.426;2023-05-11T11:13:12;73038.41;;;-140.58;50.03
17309;BME280;8772;42.804;23.426;2023-05-11T11:16:09;73079.41;;;-140.58;48.97
17309;BME280;8772;42.804;23.426;2023-05-11T11:18:38;73048.66;;;-140.58;48.92
17309;BME280;8772;42.804;23.426;2023-05-11T11:21:05;73071.22;;;-140.58;48.44
17309;BME280;8772;42.804;23.426;2023-05-11T11:23:43;73063.00;;;-140.58;47.39
17309;BME280;8772;42.804;23.426;2023-05-11T11:26:14;73013.78;;;-140.58;49.29
17309;BME280;8772;42.804;23.426;2023-05-11T11:29:06;72993.28;;;-140.58;49.40
17309;BME280;8772;42.804;23.426;2023-05-11T11:31:34;73003.53;;;-140.58;48.51
17309;BME280;8772;42.804;23.426;2023-05-11T11:34:33;72972.78;;;-140.58;49.26
17309;BME280;8772;42.804;23.426;2023-05-11T11:37:03;72985.06;;;-140.58;46.80
17309;BME280;8772;42.804;23.426;2023-05-11T11:39:48;73001.47;;;-140.58;48.24
17309;BME280;8772;42.804;23.426;2023-05-11T11:42:17;73024.03;;;-140.58;48.63
17309;BME280;8772;42.804;23.426;2023-05-11T11:44:44;72997.38;;;-140.58;47.43
17309;BME280;8772;42.804;23.426;2023-05-11T11:47:13;73001.47;;;-140.58;48.21
17309;BME280;8772;42.804;23.426;2023-05-11T11:49:43;72997.38;;;-140.58;47.41
17309;BME280;8772;42.804;23.426;2023-05-11T11:52:10;73017.91;;;-140.58;47.03
17309;BME280;8772;42.804;23.426;2023-05-11T11:54:38;73001.47;;;-140.58;49.33
17309;BME280;8772;42.804;23.426;2023-05-11T12:00:09;73005.59;;;-140.58;47.42
17309;BME280;8772;42.804;23.426;2023-05-11T12:02:40;72972.78;;;-140.58;49.00
17309;BME280;8772;42.804;23.426;2023-05-11T12:05:11;72983.03;;;-140.58;47.63
17309;BME280;8772;42.804;23.426;2023-05-11T12:07:41;72987.13;;;-140.58;47.33
17309;BME280;8772;42.804;23.426;2023-05-11T12:10:08;72987.13;;;-140.58;47.08
17309;BME280;8772;42.804;23.426;2023-05-11T12:12:37;72958.41;;;-140.58;48.26
17309;BME280;8772;42.804;23.426;2023-05-11T12:15:06;72939.97;;;-140.58;46.81
17309;BME280;8772;42.804;23.426;2023-05-11T12:17:37;72952.25;;;-140.58;47.28
17309;BME280;8772;42.804;23.426;2023-05-11T12:20:13;72960.47;;;-140.58;47.10
17309;BME280;8772;42.804;23.426;2023-05-11T12:22:41;72923.56;;;-140.58;47.64
17309;BME280;8772;42.804;23.426;2023-05-11T12:25:09;72966.63;;;-140.58;46.82
17309;BME280;8772;42.804;23.426;2023-05-11T12:27:47;72960.47;;;-140.58;46.98
17309;BME280;8772;42.804;23.426;2023-05-11T12:30:21;72993.28;;;-140.58;45.95
17309;BME280;8772;42.804;23.426;2023-05-11T12:32:49;72960.47;;;-140.58;47.24
17309;BME280;8772;42.804;23.426;2023-05-11T12:35:22;72978.91;;;-140.58;46.71
17309;BME280;8772;42.804;23.426;2023-05-11T12:37:50;73005.59;;;-140.58;45.63
17309;BME280;8772;42.804;23.426;2023-05-11T12:40:17;73038.41;;;-140.58;47.27
17309;BME280;8772;42.804;23.426;2023-05-11T12:42:50;73009.69;;;-140.58;47.84
17309;BME280;8772;42.804;23.426;2023-05-11T12:45:18;73032.25;;;-140.58;47.59
17309;BME280;8772;42.804;23.426;2023-05-11T12:47:45;73003.53;;;-140.58;49.74
17309;BME280;8772;42.804;23.426;2023-05-11T12:50:12;72978.91;;;-140.58;47.46
17309;BME280;8772;42.804;23.426;2023-05-11T12:52:41;72968.66;;;-140.58;48.62
17309;BME280;8772;42.804;23.426;2023-05-11T12:55:08;72978.91;;;-140.58;48.41
17309;BME280;8772;42.804;23.426;2023-05-11T12:57:37;72964.56;;;-140.58;48.74